createdAt,value
2018-05-26T01:00:17.644Z,8.20
2018-05-26T01:50:44.546Z,6.37
2018-05-26T02:09:18.180Z,5.57
2018-05-26T02:24:52.857Z,6.43
2018-05-26T02:27:44.442Z,6.67
2018-05-26T02:37:01.225Z,6.17
2018-05-26T02:39:55.660Z,5.97
2018-05-26T02:43:00.834Z,6.60
2018-05-26T02:49:02.513Z,7.10
2018-05-26T02:51:51.024Z,6.73
2018-05-26T03:01:05.650Z,7.70
2018-05-26T03:32:27.283Z,9.17
2018-05-26T06:36:11.432Z,6.13
2018-05-26T06:38:47.767Z,6.53
2018-05-26T06:41:24.359Z,5.63
2018-05-26T06:44:00.639Z,5.60
2018-05-26T06:46:37.164Z,5.80
2018-05-26T06:49:13.182Z,4.93
2018-05-26T06:51:49.224Z,5.30
2018-05-26T06:54:25.350Z,5.20
2018-05-26T06:57:02.040Z,4.80
2018-05-26T06:59:37.766Z,4.97
2018-05-26T07:02:13.802Z,5.20
2018-05-26T07:04:50.409Z,4.87
2018-05-26T07:07:26.507Z,4.53
2018-05-26T07:10:02.743Z,5.45
2018-05-26T07:12:39.035Z,4.57
2018-05-26T07:15:16.169Z,4.53
2018-05-26T07:17:52.220Z,4.30
2018-05-26T07:20:28.846Z,4.60
2018-05-26T07:23:04.823Z,4.50
2018-05-26T07:25:40.909Z,4.85
2018-05-26T07:28:17.157Z,5.28
2018-05-26T07:30:53.165Z,5.12
2018-05-26T07:33:30.128Z,5.05
2018-05-26T07:36:06.410Z,5.35
2018-05-26T07:38:43.345Z,4.80
2018-05-26T07:41:19.814Z,4.35
2018-05-26T07:43:55.539Z,5.03
2018-05-26T07:46:32.517Z,4.57
2018-05-26T07:49:08.329Z,4.53
2018-05-26T07:51:45.010Z,4.70
2018-05-26T07:54:20.855Z,4.63
2018-05-26T07:56:56.766Z,4.47
2018-05-26T07:59:32.776Z,5.23
2018-05-26T08:02:08.816Z,4.40
2018-05-26T08:04:44.789Z,4.13
2018-05-26T08:07:20.955Z,4.00
2018-05-26T08:09:56.762Z,3.40
2018-05-26T08:12:32.523Z,3.53
2018-05-26T08:15:08.378Z,3.70
2018-05-26T08:17:44.112Z,3.47
2018-05-26T08:20:21.223Z,3.70
2018-05-26T08:22:57.091Z,3.53
2018-05-26T08:25:33.127Z,3.73
2018-05-26T08:28:08.976Z,3.70
2018-05-26T08:30:45.014Z,3.50
2018-05-26T08:33:20.755Z,3.57
2018-05-26T08:35:56.696Z,3.57
2018-05-26T08:38:33.277Z,3.33
2018-05-26T08:41:09.085Z,3.60
2018-05-26T08:43:45.195Z,3.87
2018-05-26T08:46:21.271Z,4.20
2018-05-26T08:48:57.292Z,3.50
2018-05-26T08:51:33.534Z,3.50
2018-05-26T08:54:09.893Z,3.50
2018-05-26T08:56:46.154Z,3.85
2018-05-26T08:59:22.549Z,3.50
2018-05-26T09:01:58.775Z,3.83
2018-05-26T09:04:34.807Z,3.50
2018-05-26T09:07:11.714Z,3.12
2018-05-26T09:09:48.658Z,3.58
2018-05-26T09:12:24.764Z,3.58
2018-05-26T09:15:01.286Z,3.72
2018-05-26T09:17:38.173Z,3.95
2018-05-26T09:20:14.517Z,3.62
2018-05-26T09:22:50.467Z,4.45
2018-05-26T09:25:26.996Z,3.67
2018-05-26T09:28:03.290Z,3.95
2018-05-26T09:30:39.645Z,4.00
2018-05-26T09:33:15.928Z,3.50
2018-05-26T09:35:52.070Z,3.30
2018-05-26T09:38:28.149Z,3.70
2018-05-26T09:41:04.546Z,3.45
2018-05-26T09:43:40.577Z,3.75
2018-05-26T09:46:16.821Z,3.28
2018-05-26T09:48:52.901Z,3.55
2018-05-26T09:51:29.049Z,3.85
2018-05-26T09:54:05.058Z,3.75
2018-05-26T09:56:41.252Z,3.30
2018-05-26T09:59:17.429Z,3.47
2018-05-26T10:01:53.923Z,2.90
2018-05-26T10:04:30.232Z,3.08
2018-05-26T10:07:07.037Z,3.20
2018-05-26T10:09:43.464Z,3.30
2018-05-26T10:12:20.499Z,3.60
2018-05-26T10:14:56.924Z,3.37
2018-05-26T10:17:33.198Z,3.17
2018-05-26T10:20:09.311Z,2.93
2018-05-26T10:22:45.063Z,2.97
2018-05-26T10:25:20.948Z,3.70
2018-05-26T10:27:57.162Z,3.00
2018-05-26T10:30:33.231Z,2.90
2018-05-26T10:33:09.709Z,2.73
2018-05-26T10:35:47.223Z,3.00
2018-05-26T10:38:23.526Z,3.05
2018-05-26T10:41:00.279Z,3.00
2018-05-26T10:43:36.264Z,3.30
2018-05-26T10:46:25.164Z,2.90
2018-05-26T10:49:02.659Z,3.00
2018-05-26T10:51:39.557Z,3.33
2018-05-26T10:54:15.287Z,2.80
2018-05-26T10:56:51.891Z,3.10
2018-05-26T10:59:28.037Z,2.40
2018-05-26T11:02:03.954Z,3.00
2018-05-26T11:04:39.757Z,2.80
2018-05-26T11:07:16.408Z,2.60
2018-05-26T11:09:52.246Z,2.60
2018-05-26T11:12:28.812Z,2.70
2018-05-26T11:15:04.629Z,2.70
2018-05-26T11:17:40.963Z,2.63
2018-05-26T11:20:16.996Z,3.13
2018-05-26T11:22:52.994Z,2.87
2018-05-26T11:25:29.184Z,2.97
2018-05-26T11:28:04.995Z,2.60
2018-05-26T11:30:40.804Z,3.00
2018-05-26T11:33:16.518Z,2.90
2018-05-26T11:35:53.109Z,2.70
2018-05-26T11:38:30.002Z,3.00
2018-05-26T11:41:05.762Z,3.13
2018-05-26T11:43:42.274Z,2.87
2018-05-26T11:46:18.313Z,2.80
2018-05-26T11:48:54.264Z,3.07
2018-05-26T11:51:30.113Z,3.10
2018-05-26T11:54:06.852Z,3.00
2018-05-26T11:56:42.814Z,2.77
2018-05-26T11:59:18.934Z,2.73
2018-05-26T12:01:54.909Z,2.73
2018-05-26T12:04:31.099Z,3.10
2018-05-26T12:07:06.659Z,2.77
2018-05-26T12:09:42.805Z,2.93
2018-05-26T12:12:18.930Z,3.13
2018-05-26T12:14:54.757Z,2.70
2018-05-26T12:17:30.522Z,3.00
2018-05-26T12:20:06.644Z,3.10
2018-05-26T12:22:42.430Z,3.30
2018-05-26T12:25:18.936Z,2.70
2018-05-26T12:27:54.779Z,3.03
2018-05-26T12:30:31.128Z,2.90
2018-05-26T12:33:07.047Z,3.03
2018-05-26T12:35:43.563Z,3.00
2018-05-26T12:38:19.310Z,2.60
2018-05-26T12:40:55.992Z,3.13
2018-05-26T12:43:31.787Z,2.70
2018-05-26T12:46:07.624Z,2.83
2018-05-26T12:48:43.480Z,3.17
2018-05-26T12:51:19.437Z,2.80
2018-05-26T12:53:55.535Z,2.87
2018-05-26T12:56:31.428Z,2.90
2018-05-26T12:59:07.644Z,2.87
2018-05-26T13:01:43.292Z,3.12
2018-05-26T13:04:19.660Z,3.03
2018-05-26T13:06:55.845Z,3.05
2018-05-26T13:09:33.440Z,3.30
2018-05-26T13:12:09.340Z,3.10
2018-05-26T13:14:48.256Z,3.00
2018-05-26T13:17:25.081Z,3.15
2018-05-26T13:20:01.154Z,3.15
2018-05-26T13:25:39.126Z,3.00
2018-05-26T13:28:15.528Z,2.97
2018-05-26T13:30:51.640Z,3.00
2018-05-26T13:33:28.493Z,2.90
2018-05-26T13:36:15.368Z,2.87
2018-05-26T13:38:51.477Z,3.17
2018-05-26T13:44:39.091Z,3.12
2018-05-26T13:47:19.438Z,3.00
2018-05-26T16:41:11.459Z,3.45
2018-05-26T16:43:49.023Z,2.80
2018-05-26T16:46:25.082Z,3.20
2018-05-26T16:49:01.079Z,2.70
2018-05-26T16:51:38.422Z,3.15
2018-05-26T16:54:14.725Z,3.15
